Carlton Park, Ontario

11:17 PM EDT on August 20, 2018 (GMT -0400)
Facer Area | | Change Station

Elev 338 ft 43.17 °N, 79.23 °W | Updated 25 seconds ago

Scattered Clouds
Scattered Clouds
72.9 °F
Feels Like 75 °F
N
0
Wind Variable Wind from ESE
Gusts 0.0 mph

Today
High -- | Low -- °F
--% Chance of Precip.
Yesterday
High -- | Low -- °F
Precip. -- in
Pressure 29.99 in
Visibility 15.0 miles
Clouds Scattered Clouds 4200 ft
Scattered Clouds 16000 ft
Heat Index 75 °F
Dew Point 64 °F
Humidity 73%
Rainfall 0.00 in
Snow Depth Not available.
6:27 AM 8:11 PM
Waxing Gibbous, 76% visible
METAR CYSN 210100Z 11005KT 15SM SCT042 SCT160 23/19 A2999 RMK SC3AC1 LAST STFD OBS /
Pressure 29.99 in
Visibility 15.0 miles
Clouds Scattered Clouds 4200 ft
Scattered Clouds 16000 ft
Heat Index 75 °F
Dew Point 64 °F
Humidity 73%
Rainfall 0.00 in
Snow Depth Not available.
6:27 AM 8:11 PM
Waxing Gibbous, 76% visible
METAR CYSN 210100Z 11005KT 15SM SCT042 SCT160 23/19 A2999 RMK SC3AC1 LAST STFD OBS /

Get Severe Weather Alerts

Thanks for signing up!

Be on the lookout for a verification email in your inbox.

You'll start receiving the daily forecast at 6 AM.

×

10-Day Weather Forecast

Almanac

Astronomy

Aug. 20, 2018 Rise Set
Actual Time
Civil Twilight
Nautical Twilight
Astronomical Twilight
Moon
Length of Visible Light
Length of Day
Tomorrow will be .
, % of the Moon is Illuminated

Today's Extremes

Country Highs Country Lows

Community

WunderPhotos

Category 6

Welcome to Category 6. This is the collective home for Weather Underground's featured writeups by Dr. Jeff Masters (right), Bob Henson (left), Chris Burt, and other regular contributors.

Nearby

Air Quality

  Air Quality AQ Index Pollutant
Not available.

Snow Depth

Station Depth Elevation

Earthquake Activity

City Distance Mag. Time & Date
Minimum magnitude displayed is 2.5.

Coastal Water Temperatures

Place Temperature

Stations

Nearby Weather Stations

Station Location Temp. Windchill Dew Point Humidity Wind Precip. Elev Updated Type
                   

Watches & Warnings

There are currently no watches in effect.